AirNav   Pilot Hours Calculator
 
 1124 users online  

WN61 Tai's Landing Airport
Spokane, Washington, USA

GOING TO SPOKANE?


FAA INFORMATION EFFECTIVE 09 SEPTEMBER 2021

Location

FAA Identifier: WN61
Lat/Long: 47-43-30.6170N 117-16-48.7650W
47-43.510283N 117-16.812750W
47.7251714,-117.2802125
(estimated)
Elevation: 2450 ft. / 747 m (estimated)
Variation: 19E (1985)
From city: 5 miles N of SPOKANE, WA
Time zone: UTC -7 (UTC -8 during Standard Time)
Zip code: 99217

Airport Operations

Airport use: CLOSED INDEFINITELY
Activation date: 12/1985
Control tower: no
ARTCC: SEATTLE CENTER
FSS: SEATTLE FLIGHT SERVICE STATION
Attendance: APR-OCT SAT 0600-0900
Wind indicator: yes
Segmented circle: no

Airport Communications

WX ASOS at SFF (3 nm SW): 120.55 (509-535-3290)
WX ASOS at GEG (12 nm SW): PHONE 509-742-2544
WX ASOS at DEW (16 nm N): 135.175 (509-276-2303)
WX AWOS-3PT at COE (19 nm E): 135.075 (208-772-8215)

Nearby radio navigation aids

VOR radial/distance  VOR name  Freq  Var
GEGr035/17.0SPOKANE VORTAC115.5021E
COEr242/18.8COEUR D'ALENE VOR/DME108.8019E

 
NDB name  Hdg/Dist  Freq  Var  ID
DEER PARK142/15.736516EDPY -.. .--. -.--

Airport Services

Runway Information

Runway 9/27

Dimensions: 900 x 15 ft. / 274 x 5 m
Surface: gravel/dirt, in fair condition
RUNWAY 9  RUNWAY 27
Traffic pattern: leftleft

Airport Ownership and Management from official FAA records

Ownership: Privately-owned
Owner: ALLEN & JODI TAI TAYLOR
N 3507 ELTON RD.
SPOKANE, WA 59212
Phone 509-926-2905
Manager: ALLEN & JODI TAI TAYLOR
N. 3507 ELTON RD.
SPOKANE, WA 99212
Phone 509-926-2905

Airport Operational Statistics

Aircraft based on the field: 1
Single engine airplanes: 1
    

Additional Remarks

FOR CD CTC SPOKANE APCH AT 509-742-2522
(ARPT STATUS) ARPT CLSD INDEFLY.

Instrument Procedures

There are no published instrument procedures at WN61.

Some nearby airports with instrument procedures:

KSFF - Felts Field Airport (3 nm SW)
KGEG - Spokane International Airport (12 nm SW)
KDEW - Deer Park Airport (16 nm N)
KSKA - Fairchild Air Force Base (17 nm SW)
KCOE - Coeur d'Alene Airport - Pappy Boyington Field (19 nm E)
 
Loc | Ops | Rwys | IFR | FBO | Links
Com | Nav | Svcs | Stats | Notes
Area around WN61 (Tai's Landing Airport)
 
Road maps at: MapQuest Bing Google
 
Aerial photo
No photo
 
Sectional chart

 
Airport distance calculator
Flying to Tai's Landing Airport? Find the distance to fly.

From to WN61

Sunrise and sunset
Times for 23-Sep-2021
 Local
(UTC-7)
 Zulu
(UTC)
Morning civil twilight06:0713:07
Sunrise06:3813:38
Sunset18:4501:45
Evening civil twilight19:1502:15

Current date and time
Zulu (UTC)  24-Sep-2021 02:08:55
Local (UTC-7)  23-Sep-2021 19:08:55
 
METAR
KSFF 
3nm SW 
240153Z 00000KT 10SM CLR 18/05 A3021 RMK AO2 SLP227 T01780050
KGEG 
12nm SW 
240153Z 19004KT 10SM FEW200 FEW250 20/03 A3022 RMK AO2 SLP230 T02000033
KDEW 
16nm NW 
240153Z AUTO 00000KT 10SM CLR 16/03 A3021 RMK AO2 SLP234 T01560033
KSKA 
16nm SW 
240158Z AUTO 00000KT 10SM CLR 18/03 A3022 RMK AO2 SLP236 T01790030 $
KCOE 
19nm E 
240156Z AUTO 00000KT 10SM CLR 18/07 A3023 RMK AO2 SLP249 T01780067 PNO $
TAF
KSFF 
3nm SW 
231730Z 2318/2418 VRB03KT P6SM FEW070 SCT200
KGEG 
12nm SW 
231730Z 2318/2418 22007KT P6SM FEW070 SCT200 FM240200 VRB03KT P6SM SKC
KSKA 
16nm SW 
231900Z 2319/2501 22012KT 9999 FEW070 SCT200 QNH3019INS BECMG 2402/2403 VRB06KT 9999 FEW200 QNH3008INS WND 04006KT AFT 2416 TX23/2323Z TN07/2412Z
KCOE 
19nm E 
231730Z 2318/2418 18007KT P6SM FEW070 SCT200 FM232000 22006KT P6SM FEW080 SCT200 FM240300 VRB04KT P6SM SKC
NOTAMs
Click for the latest NOTAMs
NOTAMs are issued by the DoD/FAA and will open in a separate window not controlled by AirNav.

 

 
 

Would you like to see your business listed on this page?

 If your business provides an interesting product or service to pilots, flight crews, aircraft, or users of the Tai's Landing Airport, you should consider listing it here.  To start the listing process, click on the button below
 
Add a business
 

Other Pages about Tai's Landing Airport

Update a link
 
Copyright © AirNav, LLC. All rights reserved. Privacy Policy  Contact